createdAt,value
2018-09-28T00:00:55.520Z,6.50
2018-09-28T00:03:23.664Z,6.90
2018-09-28T00:05:51.800Z,7.37
2018-09-28T00:08:19.972Z,7.33
2018-09-28T00:10:48.148Z,7.87
2018-09-28T00:13:16.250Z,7.77
2018-09-28T00:15:44.442Z,7.23
2018-09-28T00:18:12.511Z,6.80
2018-09-28T00:20:40.637Z,7.53
2018-09-28T00:23:08.715Z,7.17
2018-09-28T00:25:36.812Z,7.07
2018-09-28T00:28:05.049Z,7.50
2018-09-28T00:30:33.165Z,6.20
2018-09-28T00:33:01.225Z,5.97
2018-09-28T00:35:29.317Z,6.67
2018-09-28T00:37:57.460Z,6.77
2018-09-28T00:40:25.635Z,6.50
2018-09-28T00:42:53.696Z,7.10
2018-09-28T00:45:21.835Z,7.43
2018-09-28T00:47:49.946Z,6.60
2018-09-28T00:50:18.215Z,6.80
2018-09-28T00:52:46.409Z,6.90
2018-09-28T00:55:14.571Z,7.60
2018-09-28T00:57:42.678Z,6.70
2018-09-28T01:00:10.844Z,6.37
2018-09-28T01:02:39.029Z,6.80
2018-09-28T01:05:07.384Z,6.40
2018-09-28T01:07:35.473Z,6.40
2018-09-28T01:10:03.854Z,6.43
2018-09-28T01:12:31.911Z,6.63
2018-09-28T01:14:59.993Z,6.17
2018-09-28T01:17:28.687Z,6.40
2018-09-28T01:19:56.988Z,7.00
2018-09-28T01:22:25.119Z,6.97
2018-09-28T01:24:53.612Z,6.70
2018-09-28T01:27:21.966Z,6.57
2018-09-28T01:29:50.102Z,7.60
2018-09-28T01:32:18.432Z,6.47
2018-09-28T01:34:46.728Z,7.00
2018-09-28T01:37:14.821Z,7.20
2018-09-28T01:39:42.964Z,7.23
2018-09-28T01:42:11.661Z,6.67
2018-09-28T01:44:39.800Z,6.57
2018-09-28T01:47:08.169Z,7.10
2018-09-28T01:49:36.244Z,6.80
2018-09-28T01:52:04.464Z,6.17
2018-09-28T01:54:32.821Z,6.73
2018-09-28T01:57:00.895Z,6.57
2018-09-28T01:59:29.087Z,7.77
2018-09-28T02:01:57.288Z,7.53
2018-09-28T02:04:25.421Z,7.73
2018-09-28T02:06:53.599Z,7.60
2018-09-28T02:09:21.825Z,8.10
2018-09-28T02:11:49.992Z,7.20
2018-09-28T02:14:18.245Z,7.10
2018-09-28T02:16:46.321Z,7.50
2018-09-28T02:19:14.409Z,7.03
2018-09-28T02:21:42.549Z,7.93
2018-09-28T02:24:10.665Z,7.40
2018-09-28T02:26:38.765Z,8.27
2018-09-28T02:29:06.868Z,8.47
2018-09-28T02:31:35.013Z,9.07
2018-09-28T02:34:03.113Z,8.47
2018-09-28T02:36:31.180Z,8.40
2018-09-28T02:38:59.473Z,8.07
2018-09-28T02:41:27.545Z,7.70
2018-09-28T02:43:55.885Z,8.30
2018-09-28T02:46:24.005Z,8.30
2018-09-28T02:48:52.099Z,7.57
2018-09-28T02:51:20.391Z,7.90
2018-09-28T02:53:48.631Z,7.40
2018-09-28T02:56:16.896Z,7.20
2018-09-28T02:58:45.097Z,7.43
2018-09-28T03:01:13.180Z,7.03
2018-09-28T03:03:41.377Z,6.93
2018-09-28T03:06:09.511Z,8.17
2018-09-28T03:08:38.422Z,8.17
2018-09-28T03:11:06.712Z,7.60
2018-09-28T03:13:34.885Z,7.80
2018-09-28T03:16:03.639Z,7.27
2018-09-28T03:18:31.742Z,7.47
2018-09-28T03:21:00.912Z,7.23
2018-09-28T03:23:29.083Z,7.77
2018-09-28T03:25:57.176Z,6.93
2018-09-28T03:28:25.541Z,7.00
2018-09-28T03:30:53.716Z,8.00
2018-09-28T03:33:21.789Z,7.23
2018-09-28T03:35:50.152Z,7.60
2018-09-28T03:38:18.275Z,7.30
2018-09-28T03:40:46.406Z,7.97
2018-09-28T03:43:14.590Z,7.80
2018-09-28T03:45:42.786Z,8.10
2018-09-28T03:48:10.869Z,7.27
2018-09-28T03:50:38.963Z,8.40
2018-09-28T03:53:07.089Z,8.50
2018-09-28T03:55:35.186Z,7.20
2018-09-28T03:58:03.251Z,8.20
2018-09-28T04:00:31.319Z,8.53
2018-09-28T04:02:59.544Z,8.20
2018-09-28T04:05:27.769Z,7.90
2018-09-28T04:07:55.873Z,7.63
2018-09-28T04:10:24.109Z,8.13
2018-09-28T04:12:52.229Z,9.03
2018-09-28T04:15:20.394Z,9.27
2018-09-28T04:17:48.461Z,7.57
2018-09-28T04:20:16.608Z,8.17
2018-09-28T04:22:44.673Z,8.10
2018-09-28T04:25:12.834Z,7.70
2018-09-28T04:27:41.049Z,7.23
2018-09-28T04:30:09.324Z,8.77
2018-09-28T04:32:37.592Z,8.20
2018-09-28T04:35:05.881Z,7.80
2018-09-28T04:37:34.137Z,8.17
2018-09-28T04:40:02.242Z,7.30
2018-09-28T04:42:31.113Z,8.30
2018-09-28T04:44:59.193Z,7.40
2018-09-28T04:47:27.308Z,7.80
2018-09-28T04:49:55.476Z,7.00
2018-09-28T04:52:23.703Z,9.30
2018-09-28T04:54:51.813Z,8.50
2018-09-28T04:57:20.252Z,7.30
2018-09-28T04:59:48.321Z,7.30
2018-09-28T05:02:16.768Z,7.60
2018-09-28T05:04:44.901Z,7.60
2018-09-28T05:07:13.006Z,8.30
2018-09-28T05:09:41.229Z,8.50
2018-09-28T05:12:09.430Z,9.33
2018-09-28T05:14:39.271Z,8.20
2018-09-28T05:17:07.354Z,8.80
2018-09-28T05:19:35.488Z,8.83
2018-09-28T05:22:03.818Z,8.57
2018-09-28T05:24:31.966Z,8.27
2018-09-28T05:27:00.037Z,8.30
2018-09-28T05:29:28.225Z,8.07
2018-09-28T05:31:56.514Z,7.93
2018-09-28T05:34:24.926Z,7.70
2018-09-28T05:36:53.169Z,7.40
2018-09-28T05:39:21.428Z,7.70
2018-09-28T05:41:49.768Z,7.43
2018-09-28T05:44:17.950Z,7.90
2018-09-28T05:46:46.033Z,7.30
2018-09-28T05:49:14.220Z,7.70
2018-09-28T05:51:42.311Z,7.60
2018-09-28T05:54:10.675Z,7.00
2018-09-28T05:56:38.884Z,7.10
2018-09-28T05:59:12.370Z,7.30
2018-09-28T06:01:45.823Z,7.63
2018-09-28T06:04:19.600Z,7.60
2018-09-28T06:06:47.719Z,6.93
2018-09-28T06:09:16.021Z,8.70
2018-09-28T06:11:44.178Z,7.20
2018-09-28T06:14:12.240Z,7.93
2018-09-28T06:16:40.387Z,7.33
2018-09-28T06:19:08.486Z,8.00
2018-09-28T06:21:36.650Z,7.80
2018-09-28T06:24:04.761Z,7.83
2018-09-28T06:26:33.017Z,7.97
2018-09-28T06:29:01.076Z,8.50
2018-09-28T06:31:29.221Z,8.30
2018-09-28T06:33:57.291Z,9.13
2018-09-28T06:36:25.543Z,9.87
2018-09-28T06:38:53.981Z,8.70
2018-09-28T06:41:22.162Z,10.43
2018-09-28T06:43:50.379Z,10.27
2018-09-28T06:46:18.504Z,9.80
2018-09-28T06:48:46.593Z,8.47
2018-09-28T06:51:14.748Z,8.43
2018-09-28T06:53:43.023Z,8.80
2018-09-28T06:56:11.373Z,10.20
2018-09-28T06:58:39.438Z,10.90
2018-09-28T07:01:07.560Z,10.73
2018-09-28T07:03:35.662Z,9.93
2018-09-28T07:06:03.798Z,9.27
2018-09-28T07:08:32.170Z,10.60
2018-09-28T07:11:00.283Z,9.70
2018-09-28T07:13:28.454Z,9.53
2018-09-28T07:15:56.644Z,9.30
2018-09-28T07:18:24.946Z,10.90
2018-09-28T07:20:53.225Z,9.60
2018-09-28T07:23:21.386Z,9.30
2018-09-28T07:25:49.477Z,8.20
2018-09-28T07:28:17.633Z,9.43
2018-09-28T07:30:45.718Z,8.60
2018-09-28T07:33:13.943Z,9.20
2018-09-28T07:35:42.065Z,9.20
2018-09-28T07:38:10.516Z,9.50
2018-09-28T07:40:38.668Z,8.73
2018-09-28T07:43:06.992Z,8.23
2018-09-28T07:45:35.185Z,8.30
2018-09-28T07:48:03.293Z,7.77
2018-09-28T07:50:31.741Z,7.43
2018-09-28T07:52:59.838Z,8.20
2018-09-28T07:55:28.190Z,6.70
2018-09-28T07:57:56.972Z,5.87
2018-09-28T08:00:25.217Z,4.80
2018-09-28T08:02:53.296Z,4.70
2018-09-28T08:05:21.694Z,4.73
2018-09-28T08:07:50.125Z,5.13
2018-09-28T08:10:18.232Z,5.67
2018-09-28T08:12:46.424Z,4.67
2018-09-28T08:15:14.697Z,5.03
2018-09-28T08:17:43.816Z,5.57
2018-09-28T08:20:12.191Z,5.40
2018-09-28T08:22:40.404Z,5.17
2018-09-28T08:25:08.496Z,5.03
2018-09-28T08:27:36.593Z,4.57
2018-09-28T08:30:05.051Z,5.17
2018-09-28T08:32:33.445Z,5.00
2018-09-28T08:35:01.640Z,5.00
2018-09-28T08:37:29.994Z,5.23
2018-09-28T08:39:58.316Z,4.97
2018-09-28T08:42:26.629Z,4.77
2018-09-28T08:44:54.827Z,4.80
2018-09-28T08:47:22.932Z,5.20
2018-09-28T08:49:51.125Z,5.63
2018-09-28T08:52:19.236Z,5.43
2018-09-28T08:54:47.370Z,4.90
2018-09-28T08:57:15.613Z,4.93
2018-09-28T08:59:43.753Z,5.40
2018-09-28T09:02:12.631Z,5.67
2018-09-28T09:04:40.856Z,4.80
2018-09-28T09:07:08.925Z,4.60
2018-09-28T09:09:37.046Z,5.13
2018-09-28T09:12:05.217Z,5.10
2018-09-28T09:14:33.365Z,5.10
2018-09-28T09:17:01.717Z,5.10
2018-09-28T09:19:29.809Z,4.33
2018-09-28T09:21:57.908Z,4.80
2018-09-28T09:24:26.152Z,6.50
2018-09-28T09:26:54.563Z,10.97
2018-09-28T09:29:22.790Z,18.43
2018-09-28T09:31:50.909Z,6.90
2018-09-28T09:34:19.099Z,8.27
2018-09-28T09:36:47.968Z,7.70
2018-09-28T09:39:16.038Z,6.40
2018-09-28T09:41:44.233Z,6.40
2018-09-28T09:44:12.988Z,7.03
2018-09-28T09:46:41.069Z,7.80
2018-09-28T09:49:09.281Z,7.00
2018-09-28T09:51:37.622Z,8.80
2018-09-28T09:54:05.802Z,8.33
2018-09-28T09:56:34.181Z,8.70
2018-09-28T09:59:02.338Z,8.40
2018-09-28T10:01:36.236Z,8.80
2018-09-28T10:04:07.828Z,7.90
2018-09-28T10:06:35.886Z,7.40
2018-09-28T10:09:06.505Z,7.70
2018-09-28T10:11:34.625Z,7.47
2018-09-28T10:14:02.957Z,7.00
2018-09-28T10:16:31.737Z,7.30
2018-09-28T10:18:59.856Z,7.60
2018-09-28T10:21:28.049Z,7.50
2018-09-28T10:23:56.170Z,7.13
2018-09-28T10:26:24.367Z,7.37
2018-09-28T10:28:52.617Z,6.93
2018-09-28T10:31:20.709Z,8.00
2018-09-28T10:33:48.796Z,7.47
2018-09-28T10:36:16.868Z,8.40
2018-09-28T10:38:45.218Z,8.37
2018-09-28T10:41:13.467Z,6.90
2018-09-28T10:43:41.722Z,6.50
2018-09-28T10:46:09.778Z,6.23
2018-09-28T10:48:37.865Z,6.00
2018-09-28T10:51:06.024Z,6.70
2018-09-28T10:53:34.372Z,5.80
2018-09-28T10:56:02.790Z,5.53
2018-09-28T10:58:31.019Z,5.10
2018-09-28T11:00:59.361Z,3.80
2018-09-28T11:03:27.529Z,3.40
2018-09-28T11:05:55.799Z,3.60
2018-09-28T11:08:24.042Z,3.57
2018-09-28T11:10:52.898Z,3.60
2018-09-28T11:13:21.035Z,3.47
2018-09-28T11:15:49.309Z,2.90
2018-09-28T11:18:17.714Z,3.33
2018-09-28T11:20:45.964Z,3.20
2018-09-28T11:23:14.057Z,3.17
2018-09-28T11:25:42.228Z,3.17
2018-09-28T11:28:10.377Z,2.70
2018-09-28T11:30:38.449Z,3.20
2018-09-28T11:33:06.599Z,2.23
2018-09-28T11:35:34.981Z,3.77
2018-09-28T11:38:03.461Z,3.93
2018-09-28T11:40:31.553Z,3.20
2018-09-28T11:42:59.790Z,3.93
2018-09-28T11:45:28.003Z,4.27
2018-09-28T11:47:56.281Z,5.20
2018-09-28T11:50:24.456Z,4.93
2018-09-28T11:52:52.688Z,5.30
2018-09-28T11:55:20.861Z,5.20
2018-09-28T11:57:49.026Z,5.10
2018-09-28T12:00:17.295Z,5.40
2018-09-28T12:02:45.368Z,5.10
2018-09-28T12:05:14.326Z,5.07
2018-09-28T12:07:42.524Z,4.93
2018-09-28T12:10:10.677Z,4.00
2018-09-28T12:12:38.814Z,4.20
2018-09-28T12:15:07.164Z,3.90
2018-09-28T12:17:35.550Z,4.30
2018-09-28T12:20:03.898Z,4.60
2018-09-28T12:22:31.969Z,4.43
2018-09-28T12:25:00.110Z,5.20
2018-09-28T12:27:28.239Z,4.60
2018-09-28T12:29:56.606Z,4.43
2018-09-28T12:32:24.682Z,5.20
2018-09-28T12:34:52.892Z,4.73
2018-09-28T12:37:21.014Z,4.37
2018-09-28T12:39:49.285Z,5.53
2018-09-28T12:42:17.675Z,4.70
2018-09-28T12:44:46.130Z,5.43
2018-09-28T12:47:14.561Z,4.73
2018-09-28T12:49:42.782Z,4.47
2018-09-28T12:52:11.180Z,5.13
2018-09-28T12:54:39.315Z,5.17
2018-09-28T12:57:07.668Z,4.73
2018-09-28T12:59:35.762Z,4.10
2018-09-28T13:02:04.265Z,4.10
2018-09-28T13:04:32.477Z,3.90
2018-09-28T13:07:00.660Z,4.23
2018-09-28T13:09:28.892Z,3.83
2018-09-28T13:11:57.126Z,3.50
2018-09-28T13:14:25.382Z,3.90
2018-09-28T13:16:53.610Z,3.73
2018-09-28T13:19:21.892Z,4.80
2018-09-28T13:21:50.073Z,4.97
2018-09-28T13:24:18.384Z,4.67
2018-09-28T13:26:46.677Z,3.63
2018-09-28T13:29:15.062Z,4.00
2018-09-28T13:31:43.378Z,4.30
2018-09-28T13:34:11.522Z,5.20
2018-09-28T13:36:39.626Z,4.37
2018-09-28T13:39:08.087Z,4.60
2018-09-28T13:41:36.659Z,3.70
2018-09-28T13:44:04.975Z,3.50
2018-09-28T13:46:33.122Z,4.70
2018-09-28T13:49:01.401Z,4.27
2018-09-28T13:51:29.760Z,4.77
2018-09-28T13:53:57.880Z,5.33
2018-09-28T13:56:26.024Z,5.40
2018-09-28T13:58:54.433Z,4.97
2018-09-28T14:01:22.554Z,5.20
2018-09-28T14:03:50.778Z,5.23
2018-09-28T14:06:18.973Z,4.73
2018-09-28T14:08:47.432Z,5.30
2018-09-28T14:11:15.870Z,5.43
2018-09-28T14:13:44.060Z,4.30
2018-09-28T14:16:12.200Z,4.77
2018-09-28T14:18:40.684Z,4.97
2018-09-28T14:21:09.038Z,4.20
2018-09-28T14:23:37.318Z,6.00
2018-09-28T14:26:05.401Z,5.43
2018-09-28T14:28:33.852Z,4.37
2018-09-28T14:31:02.174Z,5.87
2018-09-28T14:33:30.318Z,6.83
2018-09-28T14:35:58.488Z,5.17
2018-09-28T14:38:26.679Z,4.80
2018-09-28T14:40:54.997Z,6.27
2018-09-28T14:43:23.175Z,6.03
2018-09-28T14:45:51.282Z,7.50
2018-09-28T14:48:19.994Z,6.03
2018-09-28T14:50:48.504Z,7.57
2018-09-28T14:53:16.757Z,7.40
2018-09-28T14:55:44.995Z,6.30
2018-09-28T14:58:13.553Z,6.43
2018-09-28T15:00:41.970Z,6.90
2018-09-28T15:03:10.124Z,7.43
2018-09-28T15:05:38.314Z,7.23
2018-09-28T15:08:06.628Z,6.77
2018-09-28T15:10:34.972Z,6.80
2018-09-28T15:13:03.281Z,6.50
2018-09-28T15:15:31.349Z,6.00
2018-09-28T15:17:59.874Z,6.50
2018-09-28T15:20:28.024Z,5.90
2018-09-28T15:22:56.195Z,5.97
2018-09-28T15:25:24.411Z,6.90
2018-09-28T15:27:52.633Z,6.97
2018-09-28T15:30:21.060Z,7.40
2018-09-28T15:32:49.289Z,6.30
2018-09-28T15:35:17.453Z,6.30
2018-09-28T15:37:45.801Z,7.80
2018-09-28T15:40:13.944Z,7.60
2018-09-28T15:42:42.324Z,8.03
2018-09-28T15:45:10.642Z,8.20
2018-09-28T15:47:39.684Z,7.87
2018-09-28T15:50:09.051Z,9.10
2018-09-28T15:52:37.263Z,8.93
2018-09-28T15:55:05.727Z,8.93
2018-09-28T15:57:33.939Z,8.63
2018-09-28T16:00:02.132Z,8.47
2018-09-28T16:02:30.817Z,8.77
2018-09-28T16:04:59.110Z,9.27
2018-09-28T16:07:27.504Z,8.03
2018-09-28T16:09:55.557Z,8.40
2018-09-28T16:12:23.665Z,9.20
2018-09-28T16:14:51.827Z,8.77
2018-09-28T16:17:19.920Z,9.17
2018-09-28T16:19:48.096Z,8.07
2018-09-28T16:22:16.307Z,8.37
2018-09-28T16:24:44.571Z,8.63
2018-09-28T16:27:13.605Z,8.73
2018-09-28T16:29:41.802Z,8.40
2018-09-28T16:32:09.884Z,9.17
2018-09-28T16:34:38.078Z,8.27
2018-09-28T16:37:06.530Z,8.70
2018-09-28T16:39:34.809Z,7.67
2018-09-28T16:42:02.908Z,8.00
2018-09-28T16:44:31.041Z,7.77
2018-09-28T16:46:59.149Z,8.20
2018-09-28T16:49:27.235Z,9.10
2018-09-28T16:51:55.458Z,8.90
2018-09-28T16:54:23.698Z,8.77
2018-09-28T16:56:51.865Z,9.63
2018-09-28T16:59:20.101Z,9.00
2018-09-28T17:01:48.490Z,9.63
2018-09-28T17:04:17.437Z,9.00
2018-09-28T17:06:45.645Z,9.40
2018-09-28T17:09:13.819Z,9.73
2018-09-28T17:11:42.401Z,10.80
2018-09-28T17:14:10.583Z,10.00
2018-09-28T17:16:38.669Z,11.53
2018-09-28T17:19:06.912Z,12.73
2018-09-28T17:21:34.997Z,11.60
2018-09-28T17:24:03.230Z,11.63
2018-09-28T17:26:31.364Z,12.17
2018-09-28T17:28:59.456Z,11.57
2018-09-28T17:31:27.693Z,11.97
2018-09-28T17:33:55.812Z,12.50
2018-09-28T17:36:24.050Z,11.67
2018-09-28T17:38:52.277Z,11.70
2018-09-28T17:41:20.584Z,10.80
2018-09-28T17:43:49.169Z,11.13
2018-09-28T17:46:17.482Z,10.60
2018-09-28T17:48:45.645Z,9.73
2018-09-28T17:51:13.852Z,10.37
2018-09-28T17:53:42.088Z,9.33
2018-09-28T17:56:10.183Z,9.90
2018-09-28T17:58:38.397Z,10.40
2018-09-28T18:01:06.761Z,8.80
2018-09-28T18:03:34.841Z,8.33
2018-09-28T18:06:03.129Z,8.50
2018-09-28T18:08:31.485Z,8.40
2018-09-28T18:10:59.571Z,8.17
2018-09-28T18:13:28.447Z,7.67
2018-09-28T18:15:56.801Z,8.30
2018-09-28T18:18:24.907Z,6.57
2018-09-28T18:20:53.049Z,7.30
2018-09-28T18:23:21.129Z,6.87
2018-09-28T18:25:49.224Z,6.40
2018-09-28T18:28:17.958Z,6.73
2018-09-28T18:30:46.177Z,5.70
2018-09-28T18:33:14.546Z,6.50
2018-09-28T18:35:42.838Z,6.40
2018-09-28T18:38:11.077Z,5.60
2018-09-28T18:40:39.294Z,5.83
2018-09-28T18:43:07.512Z,5.60
2018-09-28T18:45:35.639Z,5.53
2018-09-28T18:48:03.772Z,5.37
2018-09-28T18:50:31.873Z,6.00
2018-09-28T18:52:59.986Z,5.37
2018-09-28T18:55:28.138Z,5.90
2018-09-28T18:57:56.232Z,5.10
2018-09-28T19:00:24.689Z,5.73
2018-09-28T19:02:53.409Z,5.70
2018-09-28T19:05:21.633Z,6.03
2018-09-28T19:07:49.769Z,5.53
2018-09-28T19:10:17.888Z,5.50
2018-09-28T19:12:46.047Z,5.60
2018-09-28T19:15:14.361Z,6.60
2018-09-28T19:17:42.467Z,6.20
2018-09-28T19:20:11.529Z,7.13
2018-09-28T19:22:39.601Z,6.93
2018-09-28T19:25:07.698Z,6.80
2018-09-28T19:27:35.939Z,6.20
2018-09-28T19:30:04.340Z,6.43
2018-09-28T19:32:32.563Z,8.30
2018-09-28T19:35:00.689Z,7.50
2018-09-28T19:37:28.798Z,7.43
2018-09-28T19:39:57.037Z,7.70
2018-09-28T19:42:25.165Z,7.37
2018-09-28T19:44:53.610Z,7.80
2018-09-28T19:47:21.881Z,8.30
2018-09-28T19:49:50.134Z,9.13
2018-09-28T19:52:18.829Z,8.43
2018-09-28T19:54:47.023Z,9.20
2018-09-28T19:57:15.312Z,9.10
2018-09-28T19:59:44.162Z,8.90
2018-09-28T20:02:12.377Z,8.43
2018-09-28T20:04:40.540Z,9.30
2018-09-28T20:07:08.633Z,8.90
2018-09-28T20:09:36.774Z,8.73
2018-09-28T20:12:05.150Z,8.93
2018-09-28T20:14:33.357Z,9.30
2018-09-28T20:17:01.637Z,8.27
2018-09-28T20:19:29.873Z,9.20
2018-09-28T20:21:58.057Z,9.00
2018-09-28T20:24:26.172Z,10.00
2018-09-28T20:26:54.719Z,9.77
2018-09-28T20:29:23.301Z,10.30
2018-09-28T20:31:51.384Z,9.73
2018-09-28T20:34:19.710Z,10.90
2018-09-28T20:36:47.821Z,10.47
2018-09-28T20:39:16.504Z,10.17
2018-09-28T20:41:44.714Z,9.90
2018-09-28T20:44:13.586Z,10.00
2018-09-28T20:46:41.696Z,10.60
2018-09-28T20:49:09.856Z,11.50
2018-09-28T20:51:37.990Z,11.43
2018-09-28T20:54:06.111Z,12.93
2018-09-28T20:56:34.243Z,12.67
2018-09-28T20:59:02.555Z,13.17
2018-09-28T21:01:30.740Z,13.20
2018-09-28T21:03:59.024Z,14.17
2018-09-28T21:06:27.167Z,15.93
2018-09-28T21:08:55.475Z,15.63
2018-09-28T21:11:23.632Z,15.77
2018-09-28T21:13:51.841Z,15.37
2018-09-28T21:16:20.957Z,17.70
2018-09-28T21:18:49.257Z,17.30
2018-09-28T21:21:17.723Z,15.97
2018-09-28T21:23:46.129Z,15.80
2018-09-28T21:26:14.497Z,15.87
2018-09-28T21:28:42.636Z,16.20
2018-09-28T21:31:10.842Z,17.40
2018-09-28T21:33:39.129Z,17.77
2018-09-28T21:36:07.261Z,16.33
2018-09-28T21:38:35.376Z,17.60
2018-09-28T21:41:03.670Z,18.77
2018-09-28T21:43:31.861Z,18.00
2018-09-28T21:46:00.749Z,16.10
2018-09-28T21:48:28.881Z,16.77
2018-09-28T21:50:57.045Z,16.43
2018-09-28T21:53:25.255Z,16.63
2018-09-28T21:55:53.420Z,15.87
2018-09-28T21:58:21.874Z,14.47
2018-09-28T22:00:55.529Z,15.53
2018-09-28T22:03:23.892Z,14.00
2018-09-28T22:05:52.376Z,13.33
2018-09-28T22:08:20.597Z,13.80
2018-09-28T22:10:48.915Z,14.10
2018-09-28T22:13:17.082Z,13.40
2018-09-28T22:15:45.233Z,13.00
2018-09-28T22:18:13.349Z,12.83
2018-09-28T22:20:41.465Z,14.10
2018-09-28T22:23:09.826Z,11.60
2018-09-28T22:25:37.881Z,10.80
2018-09-28T22:28:06.178Z,11.33
2018-09-28T22:30:34.314Z,12.17
2018-09-28T22:33:02.423Z,11.90
2018-09-28T22:35:30.533Z,10.87
2018-09-28T22:37:58.595Z,9.13
2018-09-28T22:40:26.877Z,10.03
2018-09-28T22:42:54.930Z,10.23
2018-09-28T22:45:23.385Z,10.30
2018-09-28T22:47:51.478Z,8.87
2018-09-28T22:50:19.573Z,9.10
2018-09-28T22:52:47.708Z,8.13
2018-09-28T22:55:15.975Z,8.60
2018-09-28T22:57:44.129Z,8.10
2018-09-28T23:00:12.229Z,7.73
2018-09-28T23:02:40.300Z,7.67
2018-09-28T23:05:08.581Z,7.70
2018-09-28T23:07:36.645Z,7.80
2018-09-28T23:10:04.888Z,7.33
2018-09-28T23:12:33.063Z,6.70
2018-09-28T23:15:01.233Z,5.90
2018-09-28T23:17:29.340Z,6.33
2018-09-28T23:19:57.421Z,5.93
2018-09-28T23:22:25.704Z,5.20
2018-09-28T23:24:53.817Z,5.77
2018-09-28T23:27:21.953Z,4.87
2018-09-28T23:29:50.063Z,4.77
2018-09-28T23:32:18.113Z,4.80
2018-09-28T23:34:46.280Z,4.80
2018-09-28T23:37:14.465Z,4.33
2018-09-28T23:39:42.798Z,3.60
2018-09-28T23:42:10.908Z,3.70
2018-09-28T23:44:38.964Z,5.17
2018-09-28T23:47:07.189Z,3.40
2018-09-28T23:49:35.236Z,3.30
2018-09-28T23:52:03.405Z,3.17
2018-09-28T23:54:31.465Z,3.13
2018-09-28T23:56:59.529Z,3.60
2018-09-28T23:59:27.655Z,2.90
